Time;durP1;ratioP1;P1;durP2;ratioP2;P2;SDS_P1;SDS_P2;PMS_P1;PMS_P2;Temp;Humidity;BMP_temperature;BMP_pressure;BME280_temperature;BME280_humidity;BME280_pressure;Samples;Min_cycle;Max_cycle;Signal;HPM_P1;HPM_P2
2023/07/15 00:01:34;;;;;;;11.13;8.77;;;20.00;99.90;;;;;;5000342;28;20122;-52
2023/07/15 00:04:00;;;;;;;10.30;6.93;;;20.00;99.90;;;;;;4983525;28;20137;-52
2023/07/15 00:06:26;;;;;;;12.52;8.63;;;20.00;99.90;;;;;;5000023;28;20041;-51
2023/07/15 00:08:53;;;;;;;9.23;5.50;;;20.00;99.90;;;;;;5000990;28;20106;-52
2023/07/15 00:11:28;;;;;;;9.98;6.45;;;19.90;99.90;;;;;;5000565;28;20123;-52
2023/07/15 00:13:54;;;;;;;7.88;4.97;;;19.90;99.90;;;;;;4999465;28;20056;-50
2023/07/15 00:16:21;;;;;;;5.45;4.22;;;20.00;99.90;;;;;;5000802;28;20148;-51
2023/07/15 00:18:47;;;;;;;5.88;4.32;;;20.00;99.90;;;;;;5000928;28;20069;-49
2023/07/15 00:21:20;;;;;;;6.00;4.10;;;20.00;99.90;;;;;;5000591;28;20148;-52
2023/07/15 00:23:48;;;;;;;12.15;6.75;;;20.00;99.90;;;;;;4986726;28;20042;-53
2023/07/15 00:26:14;;;;;;;9.93;6.38;;;20.00;99.90;;;;;;5004751;28;20046;-50
2023/07/15 00:28:39;;;;;;;6.55;4.30;;;20.00;99.90;;;;;;5003890;28;20073;-51
2023/07/15 00:31:12;;;;;;;8.48;4.20;;;20.00;99.90;;;;;;5039515;28;20124;-53
2023/07/15 00:33:38;;;;;;;7.47;4.38;;;20.00;99.90;;;;;;5044586;28;20040;-52
2023/07/15 00:36:05;;;;;;;6.80;4.15;;;20.00;99.90;;;;;;5012852;28;20572;-51
2023/07/15 00:38:30;;;;;;;5.90;3.80;;;19.90;99.90;;;;;;5012474;28;20042;-50
2023/07/15 00:40:56;;;;;;;6.95;4.18;;;19.90;99.90;;;;;;5004686;28;20203;-49
2023/07/15 00:46:18;;;;;;;8.43;4.38;;;19.90;99.90;;;;;;5004018;28;20048;-52
2023/07/15 00:48:54;;;;;;;6.97;3.78;;;19.80;99.90;;;;;;5004039;28;20042;-50
2023/07/15 00:51:22;;;;;;;6.85;3.70;;;19.80;99.90;;;;;;5003474;28;20404;-49
2023/07/15 00:53:49;;;;;;;7.47;4.13;;;19.80;99.90;;;;;;5004045;28;20056;-51
2023/07/15 00:56:16;;;;;;;8.88;4.68;;;19.80;99.90;;;;;;5003544;28;20042;-51
2023/07/15 00:58:41;;;;;;;9.75;3.90;;;19.80;99.90;;;;;;5003060;28;20068;-50
2023/07/15 01:01:10;;;;;;;6.93;3.95;;;19.80;99.90;;;;;;5004118;28;20294;-50
2023/07/15 01:03:39;;;;;;;5.32;3.88;;;19.80;99.90;;;;;;4985808;28;20042;-54
2023/07/15 01:06:06;;;;;;;6.35;3.63;;;19.80;99.90;;;;;;5003108;28;20072;-52
2023/07/15 01:08:31;;;;;;;6.50;4.10;;;19.90;99.90;;;;;;5003924;28;20069;-51
2023/07/15 01:10:57;;;;;;;6.28;3.65;;;19.80;99.90;;;;;;5003486;28;20461;-51
2023/07/15 01:13:23;;;;;;;4.78;3.35;;;19.80;99.90;;;;;;5013542;28;20053;-51
2023/07/15 01:15:49;;;;;;;7.20;3.92;;;19.80;99.90;;;;;;5015073;28;20049;-50
2023/07/15 01:18:14;;;;;;;7.20;3.95;;;19.80;99.90;;;;;;5023172;28;20516;-53
2023/07/15 01:20:40;;;;;;;10.05;4.20;;;19.90;99.90;;;;;;5023745;28;20045;-50
2023/07/15 01:23:05;;;;;;;6.70;3.60;;;19.90;99.90;;;;;;5022761;28;20037;-52
2023/07/15 01:25:31;;;;;;;5.20;3.53;;;19.90;99.90;;;;;;5023433;28;20535;-53
2023/07/15 01:27:57;;;;;;;7.75;4.03;;;19.80;99.90;;;;;;5022170;28;20440;-52
2023/07/15 01:30:22;;;;;;;5.63;3.90;;;19.80;99.90;;;;;;5023249;28;20546;-51
2023/07/15 01:32:48;;;;;;;6.30;3.83;;;19.80;99.90;;;;;;5021889;28;20036;-53
2023/07/15 01:35:14;;;;;;;6.80;4.03;;;19.90;99.90;;;;;;5023250;28;20411;-52
2023/07/15 01:37:40;;;;;;;8.98;3.70;;;19.90;99.90;;;;;;5023379;28;20053;-51
2023/07/15 01:40:09;;;;;;;9.57;4.00;;;19.80;99.90;;;;;;5022369;28;20045;-52
2023/07/15 01:42:35;;;;;;;6.95;3.90;;;19.70;99.90;;;;;;5022322;28;20050;-50
2023/07/15 01:45:02;;;;;;;6.80;3.60;;;19.70;99.90;;;;;;5022719;28;20045;-49
2023/07/15 01:47:27;;;;;;;8.75;3.53;;;19.70;99.90;;;;;;5022387;28;20088;-50
2023/07/15 01:49:53;;;;;;;5.82;3.53;;;19.70;99.90;;;;;;5022550;28;20169;-52
2023/07/15 01:52:18;;;;;;;5.68;3.58;;;19.70;99.90;;;;;;5022806;28;20128;-52
2023/07/15 01:54:44;;;;;;;5.43;3.50;;;19.70;99.90;;;;;;5005296;28;20042;-52
2023/07/15 01:57:10;;;;;;;5.97;3.90;;;19.60;99.90;;;;;;5020874;28;20432;-50
2023/07/15 01:59:35;;;;;;;5.55;3.33;;;19.70;99.90;;;;;;5022396;28;20417;-51
2023/07/15 02:02:01;;;;;;;5.50;3.55;;;19.70;99.90;;;;;;5022280;28;20041;-51
2023/07/15 02:04:26;;;;;;;6.55;4.00;;;19.60;99.90;;;;;;5022764;28;20041;-49
2023/07/15 02:06:52;;;;;;;7.20;3.67;;;19.70;99.90;;;;;;5021691;28;20041;-51
2023/07/15 02:09:18;;;;;;;8.40;3.88;;;19.70;99.90;;;;;;5022400;28;20049;-52
2023/07/15 02:11:43;;;;;;;7.07;3.42;;;19.80;99.90;;;;;;5021683;28;20519;-50
2023/07/15 02:14:09;;;;;;;7.72;3.65;;;19.80;99.90;;;;;;5021904;28;20052;-52
2023/07/15 02:16:35;;;;;;;5.88;3.47;;;19.90;99.90;;;;;;5004079;28;20045;-49
2023/07/15 02:19:02;;;;;;;9.00;3.85;;;19.90;99.90;;;;;;5022405;28;20042;-53
2023/07/15 02:21:27;;;;;;;6.25;3.13;;;19.90;99.90;;;;;;5022105;28;20405;-52
2023/07/15 02:23:53;;;;;;;6.20;3.20;;;19.90;99.90;;;;;;5021741;28;20046;-52
2023/07/15 02:26:19;;;;;;;9.35;3.50;;;20.00;99.50;;;;;;5022306;28;20053;-52
2023/07/15 02:28:45;;;;;;;4.65;3.25;;;20.00;99.30;;;;;;5021739;28;20550;-51
2023/07/15 02:31:11;;;;;;;7.93;3.35;;;20.10;99.20;;;;;;5022158;28;20045;-52
2023/07/15 02:33:38;;;;;;;8.13;3.22;;;20.10;99.00;;;;;;5021443;28;20377;-51
2023/07/15 02:36:04;;;;;;;9.50;3.30;;;20.10;99.00;;;;;;5021639;28;20565;-50
2023/07/15 02:38:31;;;;;;;4.72;2.92;;;20.10;99.30;;;;;;5022107;28;20034;-49
2023/07/15 02:40:56;;;;;;;7.55;3.03;;;20.20;99.10;;;;;;5002548;28;20034;-49
2023/07/15 02:43:22;;;;;;;6.70;3.08;;;20.20;99.00;;;;;;5004142;28;20370;-49
2023/07/15 02:45:51;;;;;;;6.25;3.40;;;20.20;98.90;;;;;;5001229;28;20112;-50
2023/07/15 02:48:21;;;;;;;8.05;3.13;;;20.20;98.80;;;;;;5001917;28;20416;-53
2023/07/15 02:50:55;;;;;;;4.47;2.88;;;20.10;98.70;;;;;;5002737;28;20074;-50
2023/07/15 02:53:21;;;;;;;6.35;3.05;;;20.10;98.70;;;;;;5001692;28;20038;-53
2023/07/15 02:55:48;;;;;;;5.15;3.17;;;20.10;98.70;;;;;;5001649;28;20454;-50
2023/07/15 02:58:14;;;;;;;6.80;3.03;;;20.00;98.80;;;;;;5000771;28;20056;-53
2023/07/15 03:00:40;;;;;;;6.18;3.08;;;20.00;98.80;;;;;;5002124;28;20042;-52
2023/07/15 03:03:07;;;;;;;5.30;2.90;;;19.90;98.70;;;;;;5000438;28;20108;-50
2023/07/15 03:05:33;;;;;;;5.63;3.40;;;20.00;98.50;;;;;;4983234;28;20038;-50
2023/07/15 03:07:59;;;;;;;6.10;3.22;;;19.90;98.50;;;;;;5001442;28;20362;-51
2023/07/15 03:10:25;;;;;;;6.13;2.97;;;20.00;98.30;;;;;;4983654;28;20428;-53
2023/07/15 03:12:51;;;;;;;5.78;3.28;;;20.10;98.00;;;;;;5000296;28;20381;-50
2023/07/15 03:15:17;;;;;;;4.93;3.00;;;20.10;98.00;;;;;;5008115;28;20049;-50
2023/07/15 03:17:43;;;;;;;4.55;3.05;;;20.10;98.00;;;;;;5006235;28;20140;-50
2023/07/15 03:20:19;;;;;;;5.85;3.40;;;20.10;97.80;;;;;;4983691;28;20073;-51
2023/07/15 03:22:45;;;;;;;7.72;3.47;;;20.10;97.60;;;;;;5001297;28;20042;-52
2023/07/15 03:25:10;;;;;;;5.22;3.08;;;20.10;97.60;;;;;;4983428;28;20038;-50
2023/07/15 03:27:37;;;;;;;5.88;3.10;;;20.10;97.30;;;;;;5000258;28;20061;-51
2023/07/15 03:30:02;;;;;;;8.48;2.90;;;20.20;97.40;;;;;;5000755;28;20042;-50
2023/07/15 03:32:28;;;;;;;5.63;3.17;;;20.20;97.40;;;;;;5001234;28;20547;-52
2023/07/15 03:34:54;;;;;;;5.70;2.90;;;20.20;97.30;;;;;;4980072;28;20073;-52
2023/07/15 03:37:19;;;;;;;5.95;2.60;;;20.10;97.40;;;;;;4996078;28;20069;-51
2023/07/15 03:39:45;;;;;;;6.15;2.90;;;20.00;97.50;;;;;;4983249;28;20552;-51
2023/07/15 03:42:10;;;;;;;5.78;2.85;;;20.00;97.50;;;;;;5000887;28;20093;-52
2023/07/15 03:44:36;;;;;;;5.07;2.95;;;20.00;97.50;;;;;;5000840;28;20044;-50
2023/07/15 03:47:02;;;;;;;7.63;2.90;;;20.00;97.70;;;;;;5000376;28;20081;-51
2023/07/15 03:49:27;;;;;;;5.13;3.22;;;19.90;97.60;;;;;;5000997;28;20077;-53
2023/07/15 03:51:53;;;;;;;8.15;2.80;;;19.90;97.70;;;;;;5001139;28;20038;-53
2023/07/15 03:54:19;;;;;;;4.72;2.85;;;19.90;97.80;;;;;;5000815;28;20048;-52
2023/07/15 03:56:45;;;;;;;7.68;2.90;;;19.90;97.80;;;;;;4999423;28;20045;-49
2023/07/15 03:59:10;;;;;;;5.10;2.85;;;19.90;97.70;;;;;;5000961;28;20042;-51
2023/07/15 04:01:36;;;;;;;5.30;3.08;;;19.90;97.80;;;;;;5000476;28;20485;-50
2023/07/15 04:04:07;;;;;;;5.43;2.92;;;19.90;97.90;;;;;;4999859;28;20042;-51
2023/07/15 04:06:33;;;;;;;6.35;2.95;;;19.70;98.00;;;;;;5000265;28;20053;-50
2023/07/15 04:08:58;;;;;;;5.15;3.00;;;19.70;98.10;;;;;;5000659;28;20529;-51
2023/07/15 04:11:24;;;;;;;5.55;2.95;;;19.70;98.10;;;;;;4999553;28;20129;-54
2023/07/15 04:13:50;;;;;;;6.10;2.83;;;19.70;98.20;;;;;;5001110;28;20144;-50
2023/07/15 04:16:16;;;;;;;7.65;3.10;;;19.70;98.30;;;;;;5000602;28;20054;-50
2023/07/15 04:18:45;;;;;;;5.50;3.17;;;19.60;98.50;;;;;;5000502;28;20378;-50
2023/07/15 04:21:10;;;;;;;6.95;3.00;;;19.60;98.50;;;;;;5000002;28;20042;-50
2023/07/15 04:23:36;;;;;;;5.45;2.65;;;19.60;98.50;;;;;;5000651;28;20033;-50
2023/07/15 04:26:02;;;;;;;5.53;3.50;;;19.60;98.60;;;;;;5001151;28;20432;-49
2023/07/15 04:28:27;;;;;;;6.93;3.20;;;19.60;98.60;;;;;;4998948;28;20455;-50
2023/07/15 04:30:53;;;;;;;4.47;2.83;;;19.50;98.70;;;;;;5000799;28;20103;-49
2023/07/15 04:33:19;;;;;;;5.90;3.10;;;19.50;98.70;;;;;;5000644;28;20419;-50
2023/07/15 04:35:44;;;;;;;4.35;2.67;;;19.50;98.70;;;;;;4982917;28;20064;-51
2023/07/15 04:38:10;;;;;;;5.32;2.85;;;19.60;98.70;;;;;;4999723;28;20049;-49
2023/07/15 04:40:36;;;;;;;7.05;2.90;;;19.60;98.80;;;;;;5001057;28;20448;-50
2023/07/15 04:43:02;;;;;;;5.45;3.08;;;19.60;99.00;;;;;;5010872;28;20060;-50
2023/07/15 04:45:29;;;;;;;6.85;3.45;;;19.60;99.00;;;;;;5000373;28;20428;-50
2023/07/15 04:47:55;;;;;;;5.53;3.10;;;19.70;98.80;;;;;;5000207;28;20042;-49
2023/07/15 04:50:21;;;;;;;10.05;3.10;;;19.70;98.90;;;;;;5000329;28;20042;-48
2023/07/15 04:52:47;;;;;;;5.80;2.75;;;19.70;98.90;;;;;;5000425;28;20037;-52
2023/07/15 04:55:13;;;;;;;5.43;2.72;;;19.90;98.70;;;;;;4999789;28;20145;-51
2023/07/15 04:57:39;;;;;;;6.82;2.83;;;20.10;98.50;;;;;;4999917;28;20078;-51
2023/07/15 05:00:08;;;;;;;5.60;2.95;;;20.30;98.10;;;;;;5000272;28;20513;-52
2023/07/15 05:02:33;;;;;;;5.07;2.90;;;20.50;98.00;;;;;;4999221;28;20081;-52
2023/07/15 05:04:59;;;;;;;4.47;2.50;;;20.70;97.90;;;;;;5000041;28;20080;-50
2023/07/15 05:07:25;;;;;;;3.40;2.47;;;20.70;97.50;;;;;;5000272;28;20483;-52
2023/07/15 05:09:50;;;;;;;7.22;3.10;;;20.60;97.70;;;;;;5003393;28;20061;-51
2023/07/15 05:12:17;;;;;;;7.65;2.75;;;20.50;97.80;;;;;;5002609;28;20046;-50
2023/07/15 05:14:42;;;;;;;5.38;2.60;;;20.40;97.90;;;;;;5006003;28;20072;-51
2023/07/15 05:17:08;;;;;;;7.95;2.80;;;20.30;98.00;;;;;;4994503;28;20544;-53
2023/07/15 05:19:34;;;;;;;4.80;2.50;;;20.30;98.30;;;;;;5003263;28;20388;-52
2023/07/15 05:22:00;;;;;;;5.90;2.92;;;20.50;98.00;;;;;;5003238;28;20143;-53
2023/07/15 05:24:28;;;;;;;7.15;2.80;;;20.80;97.70;;;;;;4985774;28;20054;-52
2023/07/15 05:26:54;;;;;;;7.70;2.90;;;21.20;97.50;;;;;;5002665;28;20046;-49
2023/07/15 05:29:20;;;;;;;4.93;2.78;;;21.40;96.90;;;;;;5002841;28;20126;-49
2023/07/15 05:31:46;;;;;;;4.93;2.58;;;21.50;96.70;;;;;;5003144;28;20298;-49
2023/07/15 05:34:12;;;;;;;4.90;2.70;;;21.70;96.60;;;;;;5003229;28;20079;-49
2023/07/15 05:36:37;;;;;;;7.00;2.58;;;21.80;96.50;;;;;;5002765;28;20042;-52
2023/07/15 05:39:03;;;;;;;8.00;2.90;;;22.00;96.30;;;;;;5002620;28;20042;-51
2023/07/15 05:41:28;;;;;;;10.68;3.00;;;22.10;96.20;;;;;;5003018;28;20041;-49
2023/07/15 05:43:54;;;;;;;4.88;2.60;;;21.90;96.30;;;;;;5003298;28;20034;-51
2023/07/15 05:46:20;;;;;;;5.85;2.50;;;22.00;96.30;;;;;;5002006;28;20101;-50
2023/07/15 05:48:46;;;;;;;5.32;2.90;;;22.30;95.90;;;;;;5002798;28;20038;-51
2023/07/15 05:51:11;;;;;;;7.43;2.85;;;22.50;95.70;;;;;;5003013;28;20061;-52
2023/07/15 05:53:37;;;;;;;4.78;2.53;;;22.80;95.50;;;;;;5002473;28;20046;-51
2023/07/15 05:56:03;;;;;;;5.50;2.80;;;23.00;95.20;;;;;;5002064;28;20089;-52
2023/07/15 05:58:29;;;;;;;9.85;2.78;;;23.10;95.00;;;;;;5002887;28;20125;-51
2023/07/15 06:00:55;;;;;;;4.63;2.80;;;23.10;95.10;;;;;;5002481;28;20168;-51
2023/07/15 06:03:21;;;;;;;9.25;3.50;;;23.20;94.80;;;;;;5002053;28;20046;-50
2023/07/15 06:05:46;;;;;;;215.73;191.82;;;23.40;94.80;;;;;;5002278;28;20429;-49
2023/07/15 06:08:12;;;;;;;4.63;3.10;;;23.50;94.80;;;;;;5002388;28;20417;-50
2023/07/15 06:10:38;;;;;;;5.65;2.75;;;23.40;94.70;;;;;;5002513;28;20475;-52
2023/07/15 06:13:03;;;;;;;5.32;2.67;;;23.60;94.70;;;;;;5001385;28;20454;-50
2023/07/15 06:15:29;;;;;;;7.30;2.70;;;23.70;94.50;;;;;;4985265;28;20323;-49
2023/07/15 06:17:57;;;;;;;10.20;7.45;;;24.00;94.20;;;;;;5002450;28;20052;-50
2023/07/15 06:20:23;;;;;;;34.13;30.75;;;24.00;94.30;;;;;;5000455;28;20651;-49
2023/07/15 06:22:49;;;;;;;7.80;4.30;;;24.00;94.30;;;;;;5002353;28;20374;-53
2023/07/15 06:25:16;;;;;;;288.58;266.02;;;24.00;94.10;;;;;;5002167;28;20358;-51
2023/07/15 06:27:42;;;;;;;403.67;375.75;;;24.00;94.10;;;;;;5001877;28;20042;-52
2023/07/15 06:30:08;;;;;;;7.90;3.05;;;24.10;94.40;;;;;;5002157;28;20546;-50
2023/07/15 06:32:34;;;;;;;5.68;2.88;;;24.10;94.40;;;;;;5002267;28;20052;-49
2023/07/15 06:34:59;;;;;;;4.85;3.05;;;24.10;94.30;;;;;;5002054;28;20049;-51
2023/07/15 06:37:25;;;;;;;4.72;2.72;;;24.30;94.30;;;;;;5001670;28;20042;-50
2023/07/15 06:39:51;;;;;;;6.20;2.85;;;24.40;94.10;;;;;;4994068;28;20541;-51
2023/07/15 06:42:17;;;;;;;8.10;2.70;;;24.50;94.10;;;;;;5002773;28;20057;-52
2023/07/15 06:44:42;;;;;;;5.60;1.95;;;24.70;94.00;;;;;;5011464;28;20509;-51
2023/07/15 06:47:08;;;;;;;6.70;2.78;;;24.70;94.10;;;;;;5001488;28;20089;-50
2023/07/15 06:49:34;;;;;;;4.22;2.58;;;24.80;94.00;;;;;;5001825;28;20054;-53
2023/07/15 06:51:59;;;;;;;5.00;2.40;;;24.90;94.00;;;;;;5002115;28;20401;-50
2023/07/15 06:54:25;;;;;;;5.03;2.40;;;24.80;94.20;;;;;;5001600;28;20397;-51
2023/07/15 06:56:50;;;;;;;6.03;2.47;;;24.90;94.30;;;;;;4996045;28;20583;-51
2023/07/15 06:59:16;;;;;;;6.00;2.80;;;25.00;94.50;;;;;;4997572;28;20133;-49
2023/07/15 07:01:41;;;;;;;5.78;2.50;;;25.30;94.50;;;;;;5005330;28;20371;-50
2023/07/15 07:04:07;;;;;;;6.47;2.58;;;25.40;94.50;;;;;;5009039;28;20089;-52
2023/07/15 07:06:33;;;;;;;3.03;2.17;;;25.20;94.60;;;;;;5001753;28;20124;-53
2023/07/15 07:08:59;;;;;;;5.78;2.70;;;25.10;95.00;;;;;;5001618;28;20081;-52
2023/07/15 07:11:24;;;;;;;5.15;2.63;;;25.10;94.80;;;;;;5000571;28;20057;-52
2023/07/15 07:13:50;;;;;;;4.80;2.47;;;25.10;94.80;;;;;;4986360;28;20050;-51
2023/07/15 07:16:16;;;;;;;3.80;2.30;;;25.00;94.80;;;;;;5003683;28;20076;-53
2023/07/15 07:18:41;;;;;;;4.53;2.33;;;25.10;95.00;;;;;;5010101;28;20396;-52
2023/07/15 07:21:07;;;;;;;4.93;2.20;;;25.20;95.10;;;;;;5000801;28;20048;-51
2023/07/15 07:23:33;;;;;;;6.75;1.83;;;25.30;95.00;;;;;;5001756;28;20077;-50
2023/07/15 07:25:59;;;;;;;7.38;2.28;;;25.20;95.10;;;;;;5000631;28;20383;-51
2023/07/15 07:28:42;;;;;;;4.13;2.28;;;25.20;95.30;;;;;;5003522;28;20034;-52
2023/07/15 07:31:09;;;;;;;6.55;2.10;;;25.20;95.30;;;;;;5018303;28;20042;-53
2023/07/15 07:33:34;;;;;;;3.95;2.20;;;25.20;95.40;;;;;;5021170;28;20068;-53
2023/07/15 07:36:00;;;;;;;3.47;1.83;;;25.20;95.50;;;;;;5020265;28;20049;-51
2023/07/15 07:38:26;;;;;;;7.63;2.50;;;25.20;95.10;;;;;;5020691;28;20049;-53
2023/07/15 07:40:52;;;;;;;6.80;2.20;;;25.20;95.70;;;;;;5020218;28;20048;-53
2023/07/15 07:43:17;;;;;;;5.63;2.00;;;25.20;95.60;;;;;;5020943;28;20045;-53
2023/07/15 07:45:43;;;;;;;5.45;2.15;;;25.30;95.60;;;;;;5019012;28;20607;-49
2023/07/15 07:48:08;;;;;;;5.05;2.20;;;25.30;95.60;;;;;;5022437;28;20840;-52
2023/07/15 07:50:35;;;;;;;5.15;2.20;;;25.40;95.90;;;;;;5023282;28;20087;-53
2023/07/15 07:53:01;;;;;;;3.50;1.85;;;25.50;95.90;;;;;;5023258;28;20158;-53
2023/07/15 07:55:29;;;;;;;3.70;1.70;;;25.60;95.90;;;;;;5022310;28;20057;-52
2023/07/15 07:57:55;;;;;;;3.50;1.83;;;25.60;96.10;;;;;;5022008;28;20452;-51
2023/07/15 08:00:21;;;;;;;6.72;1.60;;;25.50;95.80;;;;;;5022506;28;20044;-53
2023/07/15 08:02:46;;;;;;;4.22;1.85;;;25.50;96.10;;;;;;5005156;28;20112;-53
2023/07/15 08:05:12;;;;;;;4.28;1.90;;;25.50;96.20;;;;;;5022195;28;20037;-54
2023/07/15 08:07:38;;;;;;;3.92;2.10;;;25.50;95.90;;;;;;5021984;28;20531;-55
2023/07/15 08:10:04;;;;;;;3.47;1.95;;;25.50;95.90;;;;;;5021446;28;20385;-53
2023/07/15 08:12:30;;;;;;;2.72;1.75;;;25.40;96.10;;;;;;5018593;28;20049;-53
2023/07/15 08:14:55;;;;;;;4.60;2.00;;;25.40;96.20;;;;;;5021076;28;20038;-54
2023/07/15 08:17:21;;;;;;;4.85;1.88;;;25.40;96.00;;;;;;5029957;28;20095;-51
2023/07/15 08:19:47;;;;;;;2.58;1.60;;;25.50;95.80;;;;;;5020108;28;20037;-50
2023/07/15 08:22:12;;;;;;;2.78;1.75;;;25.50;95.80;;;;;;5018763;28;20111;-53
2023/07/15 08:24:38;;;;;;;2.92;1.70;;;25.60;96.20;;;;;;5018811;28;20042;-53
2023/07/15 08:27:04;;;;;;;3.38;1.73;;;25.80;96.30;;;;;;5017640;28;20042;-51
2023/07/15 08:29:29;;;;;;;5.93;1.88;;;26.00;96.30;;;;;;5019696;28;20041;-52
2023/07/15 08:31:55;;;;;;;4.53;2.00;;;26.10;95.80;;;;;;5020049;28;20053;-53
2023/07/15 08:34:20;;;;;;;3.17;1.80;;;26.10;95.70;;;;;;5020561;28;20132;-52
2023/07/15 08:36:46;;;;;;;5.28;1.60;;;26.10;96.20;;;;;;5019225;28;20053;-54
2023/07/15 08:39:12;;;;;;;3.20;1.60;;;26.20;95.90;;;;;;5020522;28;20072;-52
2023/07/15 08:41:38;;;;;;;4.38;1.85;;;26.20;95.80;;;;;;5020109;28;20050;-53
2023/07/15 08:44:04;;;;;;;3.80;1.98;;;26.10;95.40;;;;;;5023478;28;20042;-53
2023/07/15 08:46:30;;;;;;;2.90;1.70;;;25.90;95.90;;;;;;5023366;28;20046;-53
2023/07/15 08:48:57;;;;;;;4.28;1.50;;;25.90;96.40;;;;;;5023455;28;20731;-49
2023/07/15 08:51:27;;;;;;;4.03;1.90;;;26.00;96.20;;;;;;4997518;28;20124;-52
2023/07/15 08:53:53;;;;;;;3.28;1.80;;;26.00;95.80;;;;;;4999428;28;20077;-50
2023/07/15 08:56:20;;;;;;;6.45;2.22;;;25.70;96.30;;;;;;5022122;28;20038;-58
2023/07/15 08:58:48;;;;;;;4.10;2.10;;;25.80;96.20;;;;;;5006133;28;20045;-59
2023/07/15 09:01:14;;;;;;;4.20;2.10;;;26.00;96.50;;;;;;5014413;28;20403;-58
2023/07/15 09:03:39;;;;;;;2.88;1.50;;;26.10;96.60;;;;;;5012677;28;20034;-59
2023/07/15 09:06:05;;;;;;;3.97;1.85;;;26.40;96.30;;;;;;5012408;28;20042;-57
2023/07/15 09:08:30;;;;;;;8.48;1.60;;;26.50;96.10;;;;;;5003997;28;20435;-58
2023/07/15 09:10:58;;;;;;;5.40;1.83;;;26.60;96.50;;;;;;4984952;28;20054;-59
2023/07/15 09:13:28;;;;;;;4.43;1.77;;;26.80;96.00;;;;;;4986101;28;20041;-58
2023/07/15 09:15:57;;;;;;;3.20;1.73;;;26.80;96.00;;;;;;4969702;28;20050;-60
2023/07/15 09:18:23;;;;;;;5.07;1.80;;;26.80;95.70;;;;;;5003988;28;20046;-58
2023/07/15 09:20:49;;;;;;;4.80;1.88;;;26.90;95.30;;;;;;5003816;28;20034;-58
2023/07/15 09:23:16;;;;;;;4.32;1.80;;;26.90;95.60;;;;;;5003871;28;20331;-58
2023/07/15 09:25:50;;;;;;;4.75;1.67;;;26.90;95.60;;;;;;5002587;28;20046;-59
2023/07/15 09:28:17;;;;;;;3.38;1.80;;;27.00;95.30;;;;;;5003821;28;20238;-58
2023/07/15 09:30:43;;;;;;;5.05;1.83;;;26.90;95.10;;;;;;5003753;28;20073;-58
2023/07/15 09:33:38;;;;;;;3.35;1.63;;;26.80;95.40;;;;;;5004263;28;20034;-52
2023/07/15 09:36:04;;;;;;;6.63;2.10;;;26.90;95.30;;;;;;5003350;28;20448;-52
2023/07/15 09:38:32;;;;;;;3.38;2.00;;;26.90;95.70;;;;;;5004674;28;20115;-52
2023/07/15 09:40:58;;;;;;;3.22;1.50;;;27.00;95.90;;;;;;5007180;28;20034;-53
2023/07/15 09:43:47;;;;;;;4.55;1.90;;;27.10;95.80;;;;;;5023254;28;20049;-53
2023/07/15 09:46:15;;;;;;;3.47;1.80;;;27.30;95.50;;;;;;5021915;28;20080;-50
2023/07/15 09:48:42;;;;;;;3.08;1.73;;;27.30;94.60;;;;;;5004683;28;20046;-52
2023/07/15 09:51:11;;;;;;;4.05;1.77;;;27.10;95.20;;;;;;5003073;28;20053;-53
2023/07/15 09:53:37;;;;;;;2.88;1.60;;;26.90;95.10;;;;;;5020890;28;20439;-50
2023/07/15 09:56:06;;;;;;;4.00;1.90;;;26.60;95.50;;;;;;5021098;28;20057;-51
2023/07/15 09:58:33;;;;;;;2.63;1.55;;;26.60;95.90;;;;;;5022824;28;20126;-50
2023/07/15 10:01:20;;;;;;;4.75;1.80;;;26.30;95.90;;;;;;5022467;28;20037;-51
2023/07/15 10:03:55;;;;;;;4.50;1.90;;;26.40;95.90;;;;;;5022711;28;20107;-52
2023/07/15 10:06:21;;;;;;;6.18;1.88;;;26.20;96.10;;;;;;5017471;28;20050;-53
2023/07/15 10:08:47;;;;;;;3.85;1.70;;;26.10;96.60;;;;;;5001812;28;20050;-53
2023/07/15 10:11:13;;;;;;;4.07;1.90;;;26.10;96.50;;;;;;5001795;28;20056;-52
2023/07/15 10:13:40;;;;;;;4.78;1.88;;;26.10;96.40;;;;;;5002436;28;20052;-53
2023/07/15 10:16:06;;;;;;;3.58;1.73;;;26.30;96.50;;;;;;4983935;28;20341;-52
2023/07/15 10:18:32;;;;;;;4.93;1.90;;;26.50;96.30;;;;;;5002904;28;20563;-49
2023/07/15 10:21:09;;;;;;;2.40;1.80;;;26.60;95.60;;;;;;5002358;28;20088;-48
2023/07/15 10:23:35;;;;;;;5.63;1.98;;;26.70;96.30;;;;;;5001410;28;20045;-49
2023/07/15 10:26:07;;;;;;;4.10;1.88;;;26.90;95.50;;;;;;5000863;28;20057;-50
2023/07/15 10:28:38;;;;;;;4.88;1.83;;;26.90;95.20;;;;;;5001877;28;20050;-47
2023/07/15 10:31:14;;;;;;;4.15;2.00;;;26.80;95.30;;;;;;5001328;28;20045;-48
2023/07/15 10:33:57;;;;;;;3.42;2.22;;;26.80;94.70;;;;;;5002199;28;20618;-48
2023/07/15 10:36:40;;;;;;;3.60;1.80;;;26.70;94.90;;;;;;5005133;28;20049;-48
2023/07/15 10:39:17;;;;;;;2.63;1.60;;;27.00;94.50;;;;;;4997838;28;20511;-49
2023/07/15 10:41:53;;;;;;;5.15;1.70;;;27.00;94.30;;;;;;5017402;28;20037;-49
2023/07/15 10:44:23;;;;;;;3.55;1.58;;;27.10;94.10;;;;;;5001602;28;20293;-49
2023/07/15 10:46:59;;;;;;;3.17;1.70;;;27.10;94.20;;;;;;5018216;28;20037;-49
2023/07/15 10:49:25;;;;;;;3.42;1.70;;;27.40;93.80;;;;;;5010359;28;20128;-50
2023/07/15 10:51:54;;;;;;;3.40;1.70;;;27.40;93.90;;;;;;5014863;28;20125;-50
2023/07/15 10:54:24;;;;;;;5.18;1.50;;;27.30;94.10;;;;;;5013819;28;20085;-50
2023/07/15 10:56:49;;;;;;;2.22;1.58;;;27.40;93.70;;;;;;5018871;28;20396;-51
2023/07/15 10:59:15;;;;;;;2.83;1.63;;;27.50;93.80;;;;;;5023199;28;20095;-50
2023/07/15 11:01:45;;;;;;;7.28;1.42;;;27.40;94.10;;;;;;5012335;28;20091;-51
2023/07/15 11:04:11;;;;;;;2.20;1.38;;;27.50;93.10;;;;;;5003641;28;20054;-48
2023/07/15 11:06:37;;;;;;;3.50;1.60;;;27.40;93.80;;;;;;5004650;28;20463;-49
2023/07/15 11:09:20;;;;;;;4.22;1.67;;;27.40;93.70;;;;;;4999361;28;20053;-51
2023/07/15 11:11:48;;;;;;;5.47;1.90;;;27.20;93.80;;;;;;4997111;28;20050;-52
2023/07/15 11:14:26;;;;;;;4.50;1.70;;;27.20;93.80;;;;;;5001220;28;20042;-51
2023/07/15 11:16:57;;;;;;;7.22;1.95;;;27.40;93.60;;;;;;5000731;28;20124;-51
2023/07/15 11:19:27;;;;;;;2.70;1.60;;;27.30;93.90;;;;;;5000793;28;20113;-51
2023/07/15 11:21:54;;;;;;;3.88;1.60;;;27.30;94.00;;;;;;4998333;28;20567;-53
2023/07/15 11:24:23;;;;;;;3.83;1.50;;;27.30;94.00;;;;;;5001296;28;20038;-50
2023/07/15 11:26:49;;;;;;;4.53;1.63;;;27.20;94.40;;;;;;5003010;28;20046;-50
2023/07/15 11:29:18;;;;;;;3.53;1.75;;;27.10;94.10;;;;;;5004206;28;20041;-60
2023/07/15 11:31:50;;;;;;;4.75;1.50;;;27.00;94.30;;;;;;5001882;28;20042;-60
2023/07/15 11:34:23;;;;;;;5.97;1.42;;;26.80;94.50;;;;;;4999643;28;20346;-57
2023/07/15 11:36:51;;;;;;;2.28;1.58;;;26.80;94.40;;;;;;4999903;28;20049;-60
2023/07/15 11:39:17;;;;;;;5.80;1.73;;;26.80;94.40;;;;;;4990000;28;20312;-61
2023/07/15 11:41:43;;;;;;;2.45;1.60;;;26.80;94.20;;;;;;4998089;28;20237;-58
2023/07/15 11:44:15;;;;;;;6.75;1.52;;;26.70;94.50;;;;;;4991349;28;20424;-59
2023/07/15 11:46:43;;;;;;;3.05;1.67;;;26.60;94.30;;;;;;4984992;28;20125;-58
2023/07/15 11:49:09;;;;;;;3.60;1.60;;;26.50;94.70;;;;;;4980183;28;20266;-58
2023/07/15 11:51:36;;;;;;;3.70;1.55;;;26.50;95.00;;;;;;4981224;28;20520;-60
2023/07/15 11:54:08;;;;;;;5.05;2.00;;;26.60;94.60;;;;;;4981188;28;20038;-59
2023/07/15 11:56:43;;;;;;;2.65;1.70;;;26.60;94.60;;;;;;4979799;28;20049;-67
2023/07/15 11:59:11;;;;;;;3.45;1.83;;;26.50;94.50;;;;;;4980798;28;20053;-58
2023/07/15 12:01:40;;;;;;;4.60;1.90;;;26.40;94.80;;;;;;4981479;28;20239;-61
2023/07/15 12:04:16;;;;;;;3.22;1.60;;;26.30;94.70;;;;;;4980939;28;20133;-62
2023/07/15 12:06:54;;;;;;;4.38;1.90;;;26.20;94.80;;;;;;4984736;28;20563;-62
2023/07/15 12:09:21;;;;;;;3.03;1.60;;;26.10;95.00;;;;;;5002093;28;20400;-59
2023/07/15 12:11:48;;;;;;;5.45;1.55;;;26.00;95.20;;;;;;5001811;28;20045;-56
2023/07/15 12:14:15;;;;;;;5.25;1.70;;;26.00;95.50;;;;;;5020615;28;20095;-56
2023/07/15 12:16:42;;;;;;;7.15;1.70;;;26.00;95.60;;;;;;5019583;28;20440;-60
2023/07/15 12:19:12;;;;;;;7.05;2.13;;;25.90;95.80;;;;;;5024587;28;20111;-61
2023/07/15 12:21:38;;;;;;;3.65;1.85;;;25.90;95.20;;;;;;5024078;28;20483;-56
2023/07/15 12:24:04;;;;;;;5.80;1.70;;;25.90;95.30;;;;;;5024359;28;20046;-58
2023/07/15 12:26:30;;;;;;;3.53;1.58;;;25.80;95.80;;;;;;5022702;28;20037;-59
2023/07/15 12:28:56;;;;;;;3.05;1.90;;;25.80;95.80;;;;;;5024104;28;20047;-60
2023/07/15 12:31:22;;;;;;;5.53;2.08;;;25.80;96.00;;;;;;5023979;28;20053;-58
2023/07/15 12:33:48;;;;;;;4.13;2.40;;;25.90;95.60;;;;;;5023679;28;20064;-58
2023/07/15 12:36:15;;;;;;;4.88;2.00;;;26.00;95.40;;;;;;5023949;28;20048;-59
2023/07/15 12:38:41;;;;;;;3.17;2.10;;;26.00;95.50;;;;;;5017062;28;20340;-59
2023/07/15 12:41:07;;;;;;;7.10;2.10;;;26.10;95.30;;;;;;5005315;28;20277;-58
2023/07/15 12:43:34;;;;;;;4.75;1.98;;;26.10;95.00;;;;;;5025339;28;20060;-58
2023/07/15 12:46:01;;;;;;;5.90;2.40;;;26.20;95.00;;;;;;5022558;28;20102;-56
2023/07/15 12:48:27;;;;;;;6.18;2.30;;;26.20;94.80;;;;;;5021959;28;20362;-58